This is the latest recevied weather packets stored in our database for station/object W2GLD-13. If no packets are shown the sender has not sent any weather packets the latest 10 day(s).
| Time | Temp. | Humidity | Pressure | Rain* | Wind** | Luminosity | Snow |
|---|---|---|---|---|---|---|---|
| 1777968019 | 13.33° C | 90% | 999.3 hPa | 0 mm | - | 0 W/m² | - |
| 1777964418 | 13.89° C | 89% | 998.9 hPa | 0 mm | - | 0 W/m² | - |
| 1777942819 | 18.33° C | 69% | 998 hPa | 0 mm | - | 9 W/m² | - |
| 1777932019 | 24.44° C | 42% | 997.9 hPa | 0 mm | - | 478 W/m² | - |
| 1777921221 | 24.44° C | 30% | 999.6 hPa | 0 mm | - | 934 W/m² | - |
| 1777881619 | 9.44° C | 77% | 1004.2 hPa | 0 mm | - | 0 W/m² | - |
| 1777842019 | 16.67° C | 42% | 1007.8 hPa | 0 mm | - | 297 W/m² | - |
| 1777834819 | 17.22° C | 39% | 1009 hPa | 0 mm | - | 819 W/m² | - |
| 1777806040 | 3.89° C | 64% | 1012 hPa | 0 mm | - | 3 W/m² | - |
| 1777802419 | 2.78° C | 63% | 1012.2 hPa | 0 mm | - | 0 W/m² | - |
| 1777798820 | 2.22° C | 66% | 1012.6 hPa | 0 mm | - | 0 W/m² | - |
| 1777777220 | 3.89° C | 66% | 1014.3 hPa | 0 mm | - | 0 W/m² | - |
| 1777683620 | 6.11° C | 66% | 1013.8 hPa | 0 mm | - | 3 W/m² | - |
| 1777676420 | 7.22° C | 65% | 1013.1 hPa | 0 mm | - | 65 W/m² | - |
| 1777590020 | 10.56° C | 45% | 1012 hPa | 0 mm | - | 81 W/m² | - |
| 1777567547 | 8.89° C | 58% | 1013.7 hPa | 0 mm | - | 118 W/m² | - |
| 1777546839 | 4.44° C | 94% | 1012.4 hPa | 0 mm | - | 2 W/m² | - |
| 1777543259 | 4.44° C | 94% | 1012.2 hPa | 0 mm | - | 0 W/m² | - |
| 1777536039 | 5° C | 94% | 1011.8 hPa | 0.76 mm | - | 0 W/m² | - |
| 1777503618 | 10° C | 86% | 1009 hPa | 0 mm | - | 28 W/m² | - |
| 1777489220 | 11.67° C | 74% | 1008.7 hPa | 0 mm | - | 109 W/m² | - |
| 1777482020 | 11.11° C | 78% | 1009.1 hPa | 0.25 mm | - | 291 W/m² | - |
| 1777478420 | 10° C | 85% | 1009.8 hPa | 0 mm | - | 228 W/m² | - |
| 1777453219 | 10° C | 84% | 1010.6 hPa | 0 mm | - | 0 W/m² | - |
| 1777446021 | 8.33° C | 91% | 1011.4 hPa | 0 mm | - | 0 W/m² | - |
* Rain latest hour (hover to see other rain measurements)
** Current wind speed in m/s (hover to see current wind gust speed)